Portada
METAR-TAF:

METAR-TAF

Aeropuertos :

Aeropuerto de Badajoz

Badajoz, España

latitud: 38-53N, longitud: 006-49W, altitud: 185 m

Observación

El informe se hizo hace 6 horas y 44 minutos, a las 19:30 UTC
Viento 15 kt del oeste
Temperatura 27°C
Humedad 39%
Presión 1014 hPa
Visibilidad 10 km o más
sin nubes por debajo de 1500 m y sin presencia de cumulonimbus.

METAR: LEBZ 301930Z 27015KT CAVOK 27/12 Q1014

Hora: 04:14 (02:14 UTC)

Pronóstico

El informe se hizo hace 6 horas y 14 minutos, a las 20:00 UTC
Pronóstico válido del 30 a las 21 UTC al 31 a las 21 UTC
Viento 12 kt del oeste
Visibilidad 10 km o más
sin nubes por debajo de 1500 m y sin presencia de cumulonimbus.

TAF: LEBZ 302000Z 3021/3121 28012KT CAVOK TX29/3115Z TN15/3106Z

Observaciones y pronósticos meteorológicos de más de 4000 aeropuertos (mensajes METAR y TAF).

Los puntos amarillos y rojos representan las estaciones disponibles.

Ponga el ratón en el punto deseado para ver el nombre de la estación.

Haga clic para ver las observaciones y los pronósticos meteorológicos.

Para cambiar el mapa : haga clic en los botones verdes con una cruz de color negro para hacer un zoom, en el botón verde con un guión para alejar o en las flechas verdes para mapas adyacentes.


METAR-TAF: